Time;durP1;ratioP1;P1;durP2;ratioP2;P2;SDS_P1;SDS_P2;PMS_P1;PMS_P2;Temp;Humidity;BMP_temperature;BMP_pressure;BME280_temperature;BME280_humidity;BME280_pressure;Samples;Min_cycle;Max_cycle;Signal;HPM_P1;HPM_P2
2021/07/23 00:01:09;;;;;;;31.63;20.20;;;13.40;99.90;;;;;;4946477;28;20087;-74
2021/07/23 00:03:36;;;;;;;30.70;19.17;;;13.40;99.90;;;;;;4949660;28;20138;-74
2021/07/23 00:06:03;;;;;;;28.75;19.85;;;13.30;99.90;;;;;;4945851;28;20047;-74
2021/07/23 00:08:31;;;;;;;24.70;18.20;;;13.20;99.90;;;;;;4958961;28;20051;-74
2021/07/23 00:10:58;;;;;;;30.48;20.13;;;13.20;99.90;;;;;;4945987;28;20139;-73
2021/07/23 00:13:25;;;;;;;25.63;18.60;;;13.30;99.90;;;;;;4960820;28;20058;-74
2021/07/23 00:15:52;;;;;;;30.42;20.13;;;13.20;99.90;;;;;;4947245;28;20419;-73
2021/07/23 00:18:19;;;;;;;29.63;19.42;;;13.20;99.90;;;;;;4954813;28;20055;-73
2021/07/23 00:20:45;;;;;;;27.15;18.83;;;13.20;99.90;;;;;;4947577;28;20046;-76
2021/07/23 00:23:12;;;;;;;32.00;18.88;;;13.20;99.90;;;;;;4945901;29;20039;-74
2021/07/23 00:25:39;;;;;;;25.27;18.90;;;13.20;99.90;;;;;;4950002;28;20145;-75
2021/07/23 00:28:06;;;;;;;25.40;18.23;;;13.10;99.90;;;;;;4966037;28;20149;-73
2021/07/23 00:30:33;;;;;;;27.55;18.58;;;13.10;99.90;;;;;;4964964;28;20135;-72
2021/07/23 00:33:01;;;;;;;28.67;19.23;;;13.00;99.90;;;;;;4964297;28;20530;-74
2021/07/23 00:35:28;;;;;;;24.30;19.05;;;13.20;99.90;;;;;;4945604;28;20114;-75
2021/07/23 00:37:57;;;;;;;28.55;20.15;;;13.00;99.90;;;;;;4960606;28;20055;-73
2021/07/23 00:40:27;;;;;;;27.23;18.70;;;13.00;99.90;;;;;;4944797;28;20075;-73
2021/07/23 00:42:56;;;;;;;31.38;18.88;;;12.90;99.90;;;;;;4961363;28;20090;-72
2021/07/23 00:45:23;;;;;;;28.90;19.25;;;12.90;99.90;;;;;;4946199;28;20562;-73
2021/07/23 00:47:54;;;;;;;29.30;19.20;;;12.90;99.90;;;;;;4965804;28;20047;-73
2021/07/23 00:50:23;;;;;;;24.73;16.10;;;12.80;99.90;;;;;;4951733;28;20055;-72
2021/07/23 00:52:51;;;;;;;26.92;18.02;;;12.80;99.90;;;;;;4944217;28;20043;-73
2021/07/23 00:55:18;;;;;;;26.92;17.95;;;12.70;99.90;;;;;;4945766;28;20747;-74
2021/07/23 00:57:48;;;;;;;26.52;17.25;;;12.70;99.90;;;;;;4947405;28;20565;-72
2021/07/23 01:00:15;;;;;;;27.45;18.58;;;12.70;99.90;;;;;;4945770;28;20047;-73
2021/07/23 01:02:55;;;;;;;28.98;18.17;;;12.70;99.90;;;;;;4944720;28;20082;-73
2021/07/23 01:05:23;;;;;;;26.67;17.60;;;12.70;99.90;;;;;;4949107;28;20539;-72
2021/07/23 01:07:50;;;;;;;22.13;16.35;;;12.70;99.90;;;;;;4949982;28;20062;-73
2021/07/23 01:10:17;;;;;;;29.85;17.75;;;12.60;99.90;;;;;;4949713;28;20132;-73
2021/07/23 01:13:03;;;;;;;29.02;16.15;;;12.50;99.90;;;;;;4947963;28;20050;-73
2021/07/23 01:15:31;;;;;;;26.00;18.17;;;12.40;99.90;;;;;;4946953;28;20130;-74
2021/07/23 01:17:58;;;;;;;23.85;16.45;;;12.40;99.90;;;;;;4952503;28;20066;-74
2021/07/23 01:20:27;;;;;;;25.70;18.15;;;12.40;99.90;;;;;;4963053;28;20443;-74
2021/07/23 01:22:57;;;;;;;30.88;18.50;;;12.40;99.90;;;;;;4969526;28;20126;-74
2021/07/23 01:25:26;;;;;;;26.10;17.98;;;12.40;99.90;;;;;;4968817;28;20051;-74
2021/07/23 01:27:55;;;;;;;26.10;17.20;;;12.40;99.90;;;;;;4967803;28;20062;-74
2021/07/23 01:30:35;;;;;;;28.10;18.30;;;12.40;99.90;;;;;;4965605;28;20136;-74
2021/07/23 01:33:16;;;;;;;27.98;17.45;;;12.40;99.90;;;;;;4963861;28;20499;-73
2021/07/23 01:35:44;;;;;;;27.15;17.63;;;12.20;99.90;;;;;;4947189;28;20055;-75
2021/07/23 01:38:17;;;;;;;26.08;17.15;;;12.30;99.90;;;;;;4958398;28;20107;-74
2021/07/23 01:40:46;;;;;;;24.70;17.08;;;12.30;99.90;;;;;;4979935;28;20598;-73
2021/07/23 01:43:17;;;;;;;22.58;15.85;;;12.20;99.90;;;;;;4966925;28;20377;-74
2021/07/23 01:45:44;;;;;;;26.10;16.25;;;12.30;99.90;;;;;;4967086;28;20787;-75
2021/07/23 01:48:40;;;;;;;;;;;12.30;99.90;;;;;;4957262;28;20050;-74
2021/07/23 01:51:31;;;;;;;26.40;16.77;;;12.30;99.90;;;;;;4955659;28;20515;-74
2021/07/23 01:53:57;;;;;;;28.75;16.55;;;12.30;99.90;;;;;;4948408;28;20054;-75
2021/07/23 01:56:27;;;;;;;24.17;16.95;;;12.30;99.90;;;;;;4948349;28;20078;-74
2021/07/23 01:58:57;;;;;;;27.90;16.67;;;12.20;99.90;;;;;;4948873;28;20055;-76
2021/07/23 02:01:27;;;;;;;28.40;16.13;;;12.30;99.90;;;;;;4950715;28;20130;-72
2021/07/23 02:04:11;;;;;;;26.48;17.02;;;12.30;99.90;;;;;;4964660;28;20423;-75
2021/07/23 02:06:38;;;;;;;28.20;17.70;;;12.20;99.90;;;;;;4956956;28;20444;-73
2021/07/23 02:09:07;;;;;;;29.83;17.17;;;12.20;99.90;;;;;;4951583;28;20051;-73
2021/07/23 02:11:41;;;;;;;23.48;15.35;;;12.20;99.90;;;;;;4950378;28;20121;-72
2021/07/23 02:14:10;;;;;;;28.95;17.15;;;12.30;99.90;;;;;;4957081;28;20150;-73
2021/07/23 02:16:38;;;;;;;31.40;17.83;;;12.50;99.90;;;;;;4945621;28;20062;-73
2021/07/23 02:19:06;;;;;;;27.77;17.58;;;12.70;99.90;;;;;;4960095;28;20102;-72
2021/07/23 02:21:56;;;;;;;25.65;18.13;;;12.50;99.90;;;;;;4928293;28;20086;-75
2021/07/23 02:24:23;;;;;;;27.65;18.10;;;12.50;99.90;;;;;;4928264;29;20052;-75
2021/07/23 02:26:51;;;;;;;27.45;16.13;;;12.50;99.90;;;;;;4911557;29;20059;-75
2021/07/23 02:29:19;;;;;;;23.45;15.93;;;12.60;99.90;;;;;;4931118;28;20051;-74
2021/07/23 02:31:48;;;;;;;25.52;16.63;;;12.70;99.90;;;;;;4946657;28;20051;-73
2021/07/23 02:34:22;;;;;;;25.55;17.17;;;12.60;99.90;;;;;;4947060;28;20102;-74
2021/07/23 02:36:52;;;;;;;23.77;17.30;;;12.50;99.90;;;;;;4946913;28;20265;-73
2021/07/23 02:39:24;;;;;;;28.90;16.63;;;12.40;99.90;;;;;;4947797;29;20055;-74
2021/07/23 02:41:57;;;;;;;25.10;16.25;;;12.30;99.90;;;;;;4965019;28;20054;-73
2021/07/23 02:44:25;;;;;;;20.88;15.63;;;12.40;99.90;;;;;;4966692;28;20055;-75
2021/07/23 02:46:51;;;;;;;23.67;16.80;;;12.30;99.90;;;;;;4962820;28;20138;-73
2021/07/23 02:49:20;;;;;;;23.65;15.80;;;12.30;99.90;;;;;;4957542;28;20500;-73
2021/07/23 02:51:50;;;;;;;26.55;17.23;;;12.20;99.90;;;;;;4965330;28;20054;-73
2021/07/23 02:54:17;;;;;;;27.95;17.75;;;12.20;99.90;;;;;;4967076;28;20420;-73
2021/07/23 02:56:44;;;;;;;24.70;17.25;;;12.30;99.90;;;;;;4964640;28;20122;-73
2021/07/23 02:59:11;;;;;;;27.40;17.30;;;12.30;99.90;;;;;;4966636;28;20059;-73
2021/07/23 03:01:41;;;;;;;25.40;17.42;;;12.40;99.90;;;;;;4952333;28;20055;-73
2021/07/23 03:04:11;;;;;;;31.08;17.17;;;12.30;99.90;;;;;;4946249;28;20058;-73
2021/07/23 03:06:39;;;;;;;27.35;17.23;;;12.10;99.90;;;;;;4962559;28;20110;-72
2021/07/23 03:09:08;;;;;;;23.10;17.15;;;12.00;99.90;;;;;;4947074;28;20055;-73
2021/07/23 03:11:35;;;;;;;24.08;17.17;;;12.00;99.90;;;;;;4954157;28;20042;-72
2021/07/23 03:14:06;;;;;;;29.90;16.52;;;11.90;99.90;;;;;;4957053;28;20109;-72
2021/07/23 03:16:45;;;;;;;26.42;17.35;;;11.90;99.90;;;;;;4946041;28;20043;-72
2021/07/23 03:19:12;;;;;;;26.52;16.83;;;11.90;99.90;;;;;;4956588;28;20098;-74
2021/07/23 03:21:39;;;;;;;28.15;17.10;;;11.90;99.90;;;;;;4974775;28;20114;-73
2021/07/23 03:24:10;;;;;;;27.92;17.08;;;11.90;99.90;;;;;;4948066;28;20055;-73
2021/07/23 03:26:37;;;;;;;28.08;17.25;;;11.90;99.90;;;;;;4945031;28;20247;-73
2021/07/23 03:29:08;;;;;;;31.05;15.68;;;11.90;99.90;;;;;;4945774;29;20416;-73
2021/07/23 03:31:36;;;;;;;28.33;17.33;;;11.90;99.90;;;;;;4948314;28;20264;-73
2021/07/23 03:34:15;;;;;;;24.23;16.52;;;11.80;99.90;;;;;;4954203;28;20415;-72
2021/07/23 03:37:03;;;;;;;23.15;16.02;;;11.70;99.90;;;;;;4949671;28;20061;-76
2021/07/23 03:39:56;;;;;;;25.83;18.23;;;11.70;99.90;;;;;;4949847;28;20077;-74
2021/07/23 03:42:32;;;;;;;25.38;16.63;;;11.70;99.90;;;;;;4952918;28;20559;-73
2021/07/23 03:45:19;;;;;;;26.25;18.40;;;11.70;99.90;;;;;;4964851;28;20470;-74
2021/07/23 03:47:54;;;;;;;27.15;18.10;;;11.80;99.90;;;;;;4956829;28;20138;-74
2021/07/23 03:50:22;;;;;;;26.40;16.63;;;11.70;99.90;;;;;;4973841;28;20203;-73
2021/07/23 03:52:56;;;;;;;30.63;20.10;;;11.70;99.90;;;;;;4942614;28;20113;-73
2021/07/23 03:55:42;;;;;;;29.38;19.42;;;11.80;99.90;;;;;;4947108;28;20065;-73
2021/07/23 03:58:15;;;;;;;25.58;18.27;;;11.80;99.90;;;;;;4943691;28;20385;-74
2021/07/23 04:00:43;;;;;;;28.63;18.00;;;11.60;99.90;;;;;;4960234;28;20508;-73
2021/07/23 04:03:10;;;;;;;31.35;19.55;;;11.70;99.90;;;;;;4953730;28;20082;-73
2021/07/23 04:05:37;;;;;;;31.80;18.75;;;11.70;99.90;;;;;;4948200;28;20070;-74
2021/07/23 04:08:06;;;;;;;28.23;17.90;;;11.80;99.90;;;;;;4946248;28;20047;-74
2021/07/23 04:10:36;;;;;;;26.85;17.08;;;11.90;99.90;;;;;;4928668;28;20071;-74
2021/07/23 04:13:04;;;;;;;26.52;17.45;;;12.00;99.90;;;;;;4963408;28;20170;-73
2021/07/23 04:15:39;;;;;;;;;;;11.90;99.90;;;;;;4958680;28;20393;-74
2021/07/23 04:18:10;;;;;;;31.67;17.85;;;11.80;99.90;;;;;;4956060;28;19930;-74
2021/07/23 04:20:48;;;;;;;25.00;17.23;;;11.80;99.90;;;;;;4958112;28;20070;-74
2021/07/23 04:23:15;;;;;;;27.55;17.63;;;11.70;99.90;;;;;;4962742;28;20495;-73
2021/07/23 04:25:42;;;;;;;26.52;16.67;;;11.70;99.90;;;;;;4948954;28;20283;-74
2021/07/23 04:28:09;;;;;;;29.73;16.70;;;11.70;99.90;;;;;;4956540;28;20059;-74
2021/07/23 04:30:42;;;;;;;22.50;15.82;;;11.70;99.90;;;;;;4959490;28;20129;-73
2021/07/23 04:33:23;;;;;;;27.48;16.80;;;11.80;99.90;;;;;;4946079;28;20074;-73
2021/07/23 04:36:28;;;;;;;20.98;15.65;;;11.80;99.90;;;;;;4944361;28;20325;-73
2021/07/23 04:39:03;;;;;;;23.88;15.52;;;11.80;99.90;;;;;;4962318;28;20066;-73
2021/07/23 04:41:31;;;;;;;22.52;15.10;;;11.90;99.90;;;;;;4950049;28;20051;-74
2021/07/23 04:43:58;;;;;;;22.95;14.05;;;11.90;99.90;;;;;;4953378;28;20206;-74
2021/07/23 04:46:26;;;;;;;21.42;14.68;;;11.90;99.90;;;;;;4966250;28;20706;-74
2021/07/23 04:48:54;;;;;;;25.08;15.70;;;12.10;99.90;;;;;;4958113;28;20075;-73
2021/07/23 04:51:32;;;;;;;21.25;14.82;;;12.30;99.90;;;;;;4983801;28;20511;-74
2021/07/23 04:54:20;;;;;;;22.85;15.63;;;12.30;99.90;;;;;;4966848;28;20047;-73
2021/07/23 04:57:02;;;;;;;22.10;15.15;;;12.30;99.90;;;;;;4948386;28;20226;-73
2021/07/23 04:59:31;;;;;;;22.92;15.35;;;12.30;99.90;;;;;;4948528;29;20111;-74
2021/07/23 05:01:58;;;;;;;20.45;13.40;;;12.30;99.90;;;;;;4949359;28;20138;-73
2021/07/23 05:04:25;;;;;;;19.45;15.93;;;12.60;99.90;;;;;;4950122;28;20557;-73
2021/07/23 05:06:52;;;;;;;21.15;14.43;;;12.80;99.90;;;;;;4940372;28;20054;-73
2021/07/23 05:09:19;;;;;;;22.65;13.65;;;12.90;99.90;;;;;;4949758;28;20117;-73
2021/07/23 05:11:47;;;;;;;17.77;12.40;;;13.10;99.90;;;;;;4947178;28;20063;-73
2021/07/23 05:14:15;;;;;;;19.75;12.50;;;13.20;99.90;;;;;;4949399;29;20533;-74
2021/07/23 05:16:45;;;;;;;15.57;12.00;;;13.40;99.90;;;;;;4946661;28;20051;-74
2021/07/23 05:19:15;;;;;;;16.35;11.10;;;13.50;99.90;;;;;;4959218;28;20038;-74
2021/07/23 05:21:42;;;;;;;15.52;11.80;;;13.80;99.90;;;;;;4982481;28;20046;-73
2021/07/23 05:24:09;;;;;;;15.75;11.68;;;14.10;99.90;;;;;;4950418;28;20070;-74
2021/07/23 05:26:38;;;;;;;16.17;11.02;;;14.30;99.90;;;;;;4948422;28;20458;-73
2021/07/23 05:29:07;;;;;;;15.52;11.60;;;14.30;99.90;;;;;;4931074;29;20424;-74
2021/07/23 05:31:39;;;;;;;14.05;10.55;;;14.60;99.90;;;;;;4952669;28;20578;-72
2021/07/23 05:34:07;;;;;;;16.35;11.63;;;14.80;99.90;;;;;;4946492;28;20058;-73
2021/07/23 05:36:34;;;;;;;15.05;11.82;;;15.00;99.90;;;;;;4948585;28;20345;-73
2021/07/23 05:39:01;;;;;;;15.05;11.43;;;15.30;99.90;;;;;;4949400;28;20149;-72
2021/07/23 05:41:28;;;;;;;20.83;12.68;;;15.30;99.90;;;;;;4955358;28;20110;-73
2021/07/23 05:43:56;;;;;;;13.43;11.75;;;15.20;99.90;;;;;;4952221;28;20083;-74
2021/07/23 05:46:23;;;;;;;15.40;12.20;;;15.20;99.90;;;;;;4946926;28;20224;-72
2021/07/23 05:48:50;;;;;;;17.08;12.65;;;15.30;99.90;;;;;;4955092;28;20342;-74
2021/07/23 05:51:17;;;;;;;17.77;12.25;;;15.30;99.90;;;;;;4964690;28;20151;-73
2021/07/23 05:53:44;;;;;;;13.07;11.65;;;15.50;99.90;;;;;;4967988;28;20065;-74
2021/07/23 05:56:11;;;;;;;13.23;11.77;;;15.60;99.90;;;;;;4967158;28;20062;-73
2021/07/23 05:58:38;;;;;;;14.73;12.00;;;15.50;99.90;;;;;;4954521;28;20236;-73
2021/07/23 06:01:06;;;;;;;14.05;11.35;;;15.60;99.90;;;;;;4961291;28;20099;-74
2021/07/23 06:03:35;;;;;;;11.77;10.57;;;15.60;99.90;;;;;;4967827;28;20051;-74
2021/07/23 06:06:03;;;;;;;12.93;11.27;;;15.90;99.90;;;;;;4948038;28;20051;-74
2021/07/23 06:08:30;;;;;;;12.32;10.88;;;16.30;99.90;;;;;;4967862;28;20081;-74
2021/07/23 06:11:04;;;;;;;12.32;11.10;;;16.50;99.90;;;;;;4961585;28;20130;-73
2021/07/23 06:13:34;;;;;;;15.47;12.57;;;16.80;99.90;;;;;;4947739;28;20419;-73
2021/07/23 06:16:11;;;;;;;16.88;12.02;;;17.30;99.90;;;;;;4948123;28;20310;-73
2021/07/23 06:18:38;;;;;;;14.05;12.45;;;17.60;99.90;;;;;;4954828;28;20440;-74
2021/07/23 06:21:09;;;;;;;12.68;11.07;;;17.90;99.90;;;;;;4957358;28;20071;-73
2021/07/23 06:23:36;;;;;;;12.10;10.77;;;18.00;99.90;;;;;;4946160;28;20594;-73
2021/07/23 06:26:05;;;;;;;12.18;11.00;;;18.00;99.90;;;;;;4956777;28;20045;-72
2021/07/23 06:28:32;;;;;;;12.68;11.57;;;17.80;99.90;;;;;;4950012;28;20067;-73
2021/07/23 06:31:01;;;;;;;13.93;12.70;;;18.10;99.90;;;;;;4959404;28;20083;-73
2021/07/23 06:33:28;;;;;;;15.38;11.73;;;18.00;99.90;;;;;;4947376;28;20078;-73
2021/07/23 06:35:55;;;;;;;12.35;11.20;;;18.00;99.90;;;;;;4945549;28;20047;-73
2021/07/23 06:38:23;;;;;;;12.02;10.93;;;18.00;99.90;;;;;;4945785;28;20234;-73
2021/07/23 06:40:51;;;;;;;11.93;10.80;;;17.80;99.90;;;;;;4946971;28;20047;-72
2021/07/23 06:43:18;;;;;;;12.48;11.40;;;18.10;99.90;;;;;;4963555;28;20511;-72
2021/07/23 06:45:52;;;;;;;11.27;10.38;;;17.90;99.90;;;;;;4966959;28;20106;-71
2021/07/23 06:48:19;;;;;;;12.43;11.35;;;17.80;99.90;;;;;;4957987;28;20130;-74
2021/07/23 06:50:46;;;;;;;14.02;12.55;;;18.00;99.90;;;;;;4961377;28;20563;-74
2021/07/23 06:53:13;;;;;;;13.02;11.93;;;18.20;99.90;;;;;;4965626;28;20604;-72
2021/07/23 06:55:40;;;;;;;13.05;11.85;;;18.60;99.90;;;;;;4966252;28;20359;-74
2021/07/23 06:58:07;;;;;;;12.93;11.80;;;18.30;99.90;;;;;;4964822;28;20106;-75
2021/07/23 07:00:34;;;;;;;14.18;12.85;;;18.60;99.90;;;;;;4961167;28;20292;-75
2021/07/23 07:03:01;;;;;;;15.02;13.10;;;18.40;99.90;;;;;;4945871;28;20119;-73
2021/07/23 07:05:28;;;;;;;12.75;11.93;;;18.00;99.90;;;;;;4946191;28;20055;-74
2021/07/23 07:07:57;;;;;;;12.77;11.75;;;17.90;99.90;;;;;;4946905;28;20130;-74
2021/07/23 07:10:25;;;;;;;12.57;11.57;;;17.80;99.90;;;;;;4948105;28;20051;-73
2021/07/23 07:12:58;;;;;;;14.00;12.75;;;18.50;99.90;;;;;;4961946;28;20097;-73
2021/07/23 07:15:26;;;;;;;13.30;11.95;;;18.40;99.90;;;;;;4946850;28;20105;-74
2021/07/23 07:18:00;;;;;;;13.27;12.15;;;18.20;99.90;;;;;;4952962;28;20396;-73
2021/07/23 07:20:28;;;;;;;13.63;12.35;;;18.20;99.90;;;;;;4973789;28;20150;-72
2021/07/23 07:22:55;;;;;;;13.65;12.35;;;18.10;99.90;;;;;;4964461;28;20175;-73
2021/07/23 07:25:24;;;;;;;14.23;12.85;;;18.30;99.90;;;;;;4965394;28;20054;-74
2021/07/23 07:27:53;;;;;;;14.50;13.05;;;18.80;99.90;;;;;;4966285;28;20097;-73
2021/07/23 07:30:21;;;;;;;13.23;12.25;;;18.80;99.90;;;;;;4965455;28;20053;-73
2021/07/23 07:32:48;;;;;;;12.88;11.88;;;19.20;99.90;;;;;;4951296;28;20047;-73
2021/07/23 07:35:15;;;;;;;14.82;13.55;;;19.60;99.90;;;;;;4959151;28;20488;-74
2021/07/23 07:37:42;;;;;;;13.90;12.70;;;19.80;99.90;;;;;;4943270;28;20179;-74
2021/07/23 07:40:10;;;;;;;14.30;12.95;;;20.10;99.90;;;;;;4943369;29;20412;-75
2021/07/23 07:42:37;;;;;;;14.98;13.82;;;20.40;99.90;;;;;;4956480;28;20082;-74
2021/07/23 07:45:05;;;;;;;13.70;12.82;;;20.30;99.90;;;;;;4946497;28;20487;-73
2021/07/23 07:47:54;;;;;;;15.55;14.02;;;20.30;99.90;;;;;;4945925;28;20061;-78
2021/07/23 07:50:21;;;;;;;14.95;13.55;;;21.00;99.90;;;;;;4947451;28;20053;-78
2021/07/23 07:52:48;;;;;;;16.02;14.63;;;21.10;99.90;;;;;;4953886;28;20508;-79
2021/07/23 07:55:17;;;;;;;15.73;14.43;;;21.00;99.90;;;;;;4964969;28;20050;-79
2021/07/23 07:57:44;;;;;;;15.90;14.60;;;21.30;99.90;;;;;;4964734;28;20055;-78
2021/07/23 08:00:12;;;;;;;16.13;15.00;;;21.50;99.90;;;;;;4969211;28;20117;-76
2021/07/23 08:02:39;;;;;;;16.33;14.93;;;21.30;99.90;;;;;;4961908;28;20043;-79
2021/07/23 08:05:06;;;;;;;17.80;16.15;;;20.60;99.90;;;;;;4966623;28;20047;-77
2021/07/23 08:07:35;;;;;;;17.02;15.20;;;20.90;99.90;;;;;;4947654;28;20051;-79
2021/07/23 08:10:02;;;;;;;16.73;15.50;;;21.20;99.90;;;;;;4948691;29;20058;-79
2021/07/23 08:12:30;;;;;;;16.98;15.80;;;21.30;99.90;;;;;;4947263;28;20409;-79
2021/07/23 08:15:00;;;;;;;17.13;15.65;;;21.70;99.90;;;;;;4945903;28;20063;-78
2021/07/23 08:17:28;;;;;;;16.85;15.43;;;21.90;99.90;;;;;;4951672;28;20090;-79
2021/07/23 08:19:59;;;;;;;16.40;15.05;;;21.70;99.90;;;;;;4974065;28;20606;-77
2021/07/23 08:22:29;;;;;;;16.17;15.07;;;22.20;99.90;;;;;;4966010;28;20526;-80
2021/07/23 08:24:56;;;;;;;16.75;15.45;;;22.50;99.90;;;;;;4949815;28;20111;-78
2021/07/23 08:27:24;;;;;;;17.85;16.55;;;22.10;99.90;;;;;;4947144;28;20106;-78
2021/07/23 08:29:51;;;;;;;16.10;15.02;;;21.70;99.90;;;;;;4949260;29;20284;-80
2021/07/23 08:32:18;;;;;;;16.48;15.25;;;21.70;99.90;;;;;;4932033;29;20055;-79
2021/07/23 08:34:46;;;;;;;16.60;15.38;;;21.60;99.90;;;;;;4950930;28;20102;-79
2021/07/23 08:37:13;;;;;;;15.90;14.63;;;21.40;99.90;;;;;;4938822;28;20070;-79
2021/07/23 08:39:41;;;;;;;16.52;15.20;;;21.60;99.90;;;;;;4948721;28;20051;-78
2021/07/23 08:42:28;;;;;;;16.65;15.35;;;21.80;99.90;;;;;;4946313;28;20052;-78
2021/07/23 08:44:59;;;;;;;15.63;14.52;;;22.20;99.90;;;;;;4976143;28;20133;-79
2021/07/23 08:47:27;;;;;;;16.95;15.70;;;22.30;99.90;;;;;;4959289;28;20538;-78
2021/07/23 08:49:55;;;;;;;16.48;15.27;;;21.30;99.90;;;;;;4955083;28;20051;-79
2021/07/23 08:52:42;;;;;;;17.23;15.93;;;20.70;99.90;;;;;;4946188;29;20079;-80
2021/07/23 08:55:12;;;;;;;17.15;15.63;;;20.20;99.90;;;;;;4962316;28;20575;-79
2021/07/23 08:57:40;;;;;;;15.57;14.45;;;20.40;99.90;;;;;;4947743;29;20522;-77
2021/07/23 09:00:12;;;;;;;15.57;14.27;;;21.20;99.90;;;;;;4946588;28;20119;-79
2021/07/23 09:02:55;;;;;;;17.63;16.23;;;22.00;99.90;;;;;;4945936;29;20047;-77
2021/07/23 09:05:39;;;;;;;17.42;15.88;;;22.10;99.90;;;;;;4947119;28;20066;-78
2021/07/23 09:08:20;;;;;;;18.98;17.20;;;22.40;99.90;;;;;;4944619;28;20054;-79
2021/07/23 09:11:01;;;;;;;19.33;17.83;;;22.90;99.90;;;;;;4946142;28;20114;-79
2021/07/23 09:13:28;;;;;;;20.13;18.17;;;22.10;99.90;;;;;;4947591;28;20060;-79
2021/07/23 09:15:58;;;;;;;18.10;16.70;;;21.90;99.90;;;;;;4946165;28;20050;-79
2021/07/23 09:18:31;;;;;;;19.95;18.25;;;22.10;99.90;;;;;;4954712;28;20139;-79
2021/07/23 09:21:01;;;;;;;18.80;17.33;;;21.60;99.90;;;;;;4970405;28;20046;-80
2021/07/23 09:23:39;;;;;;;18.38;16.90;;;22.30;99.90;;;;;;4977393;28;20058;-80
2021/07/23 09:26:12;;;;;;;19.75;18.10;;;22.80;99.90;;;;;;4998243;28;20141;-79
2021/07/23 09:28:41;;;;;;;19.40;18.00;;;23.00;99.90;;;;;;4969323;28;20055;-78
2021/07/23 09:31:10;;;;;;;19.20;17.75;;;23.60;99.90;;;;;;4972004;28;20039;-79
2021/07/23 09:33:40;;;;;;;18.45;16.95;;;23.80;99.90;;;;;;4963107;28;20062;-79
2021/07/23 09:36:09;;;;;;;19.65;17.88;;;23.40;99.90;;;;;;4965695;28;20087;-80
2021/07/23 09:38:37;;;;;;;19.08;17.48;;;22.60;99.90;;;;;;4933483;29;20397;-77
2021/07/23 09:41:07;;;;;;;18.35;17.08;;;22.60;99.90;;;;;;4933310;28;20799;-79
2021/07/23 09:43:50;;;;;;;19.08;17.48;;;22.80;99.90;;;;;;4951282;28;20411;-79
2021/07/23 09:46:17;;;;;;;19.83;18.15;;;23.60;99.90;;;;;;4949141;28;20074;-80
2021/07/23 09:48:45;;;;;;;22.05;19.83;;;24.00;99.90;;;;;;4961923;28;20097;-79
2021/07/23 09:51:12;;;;;;;22.20;20.25;;;23.90;99.90;;;;;;4973042;28;20067;-77
2021/07/23 09:53:40;;;;;;;20.33;18.52;;;23.60;99.90;;;;;;4973115;28;20467;-79
2021/07/23 09:56:09;;;;;;;21.88;19.95;;;23.90;99.90;;;;;;4958860;28;20717;-79
2021/07/23 09:58:40;;;;;;;22.02;20.13;;;24.20;99.90;;;;;;4972666;28;20051;-79
2021/07/23 10:01:19;;;;;;;20.50;18.75;;;23.50;99.90;;;;;;4971024;28;20137;-80
2021/07/23 10:03:50;;;;;;;22.27;20.38;;;23.70;99.90;;;;;;4933025;29;20062;-78
2021/07/23 10:06:26;;;;;;;22.92;20.92;;;24.10;99.90;;;;;;4966491;28;20154;-80
2021/07/23 10:09:09;;;;;;;21.70;19.70;;;23.90;99.90;;;;;;4955494;28;20068;-80
2021/07/23 10:11:41;;;;;;;22.88;21.00;;;24.40;99.90;;;;;;4951269;28;20428;-79
2021/07/23 10:14:10;;;;;;;22.33;20.52;;;24.40;99.90;;;;;;4960566;28;20086;-80
2021/07/23 10:16:39;;;;;;;21.10;19.20;;;24.40;99.90;;;;;;4948279;28;20047;-80
2021/07/23 10:19:08;;;;;;;22.65;20.58;;;24.40;99.90;;;;;;4957820;28;20047;-80
2021/07/23 10:21:35;;;;;;;23.40;21.38;;;23.80;99.90;;;;;;4915224;29;20106;-79
2021/07/23 10:24:03;;;;;;;21.80;20.08;;;23.90;99.90;;;;;;4942250;29;20397;-79
2021/07/23 10:26:31;;;;;;;22.48;20.75;;;24.50;99.90;;;;;;4948074;28;20055;-79
2021/07/23 10:28:59;;;;;;;22.38;18.60;;;24.90;99.90;;;;;;4950983;28;20078;-80
2021/07/23 10:31:27;;;;;;;21.90;19.90;;;25.10;99.90;;;;;;4934383;29;20074;-80
2021/07/23 10:33:59;;;;;;;24.63;22.13;;;24.70;99.90;;;;;;4942389;28;20043;-80
2021/07/23 10:36:26;;;;;;;24.50;21.67;;;23.80;99.90;;;;;;4952383;28;20047;-79
2021/07/23 10:39:08;;;;;;;22.83;21.00;;;22.70;99.90;;;;;;4980185;28;20057;-78
2021/07/23 10:41:42;;;;;;;23.25;21.17;;;22.60;99.90;;;;;;4967625;28;20051;-76
2021/07/23 10:44:12;;;;;;;24.45;22.48;;;22.10;99.90;;;;;;4968948;28;20066;-78
2021/07/23 10:46:48;;;;;;;22.23;20.17;;;21.80;99.90;;;;;;4949728;28;20050;-78
2021/07/23 10:49:27;;;;;;;20.40;18.65;;;22.50;99.90;;;;;;4980408;28;20051;-78
2021/07/23 10:51:55;;;;;;;23.50;21.38;;;23.60;99.90;;;;;;4971188;28;20079;-78
2021/07/23 10:54:24;;;;;;;21.05;19.25;;;24.10;99.90;;;;;;4950623;28;20075;-77
2021/07/23 10:57:04;;;;;;;23.48;21.27;;;23.00;99.90;;;;;;4932476;29;20529;-77
2021/07/23 10:59:40;;;;;;;22.98;20.55;;;22.60;99.90;;;;;;4951657;28;20222;-78
2021/07/23 11:02:30;;;;;;;21.95;19.95;;;23.10;99.90;;;;;;4946552;28;20459;-77
2021/07/23 11:05:07;;;;;;;19.90;18.15;;;23.00;99.90;;;;;;4946322;28;20051;-77
2021/07/23 11:07:35;;;;;;;19.23;17.63;;;23.10;99.90;;;;;;4963867;28;20078;-77
2021/07/23 11:10:03;;;;;;;20.13;18.48;;;23.90;99.90;;;;;;4965218;28;20377;-76
2021/07/23 11:12:37;;;;;;;20.40;18.65;;;24.50;99.90;;;;;;4946302;28;20065;-78
2021/07/23 11:15:07;;;;;;;19.42;17.92;;;24.90;99.90;;;;;;4959304;28;20090;-76
2021/07/23 11:17:52;;;;;;;20.15;18.33;;;25.10;99.90;;;;;;4948317;28;20059;-77
2021/07/23 11:20:23;;;;;;;;;;;25.30;99.90;;;;;;4972546;28;20047;-73
2021/07/23 11:22:51;;;;;;;21.17;19.25;;;25.00;99.90;;;;;;4948863;28;19977;-73
2021/07/23 11:25:19;;;;;;;20.83;18.98;;;24.20;99.90;;;;;;4949221;28;20078;-73
2021/07/23 11:27:51;;;;;;;20.30;18.27;;;24.00;99.90;;;;;;4948185;28;20115;-73
2021/07/23 11:30:25;;;;;;;21.98;19.55;;;24.00;99.90;;;;;;4959156;28;20089;-74
2021/07/23 11:33:01;;;;;;;21.33;19.40;;;23.50;99.90;;;;;;4967545;28;20210;-73
2021/07/23 11:35:31;;;;;;;19.23;17.70;;;23.20;99.90;;;;;;4947402;28;20294;-73
2021/07/23 11:38:01;;;;;;;21.10;19.30;;;23.80;99.90;;;;;;4964209;28;20089;-73
2021/07/23 11:40:28;;;;;;;22.00;20.13;;;24.70;99.90;;;;;;4956942;28;20586;-73
2021/07/23 11:42:56;;;;;;;20.48;18.67;;;24.70;99.90;;;;;;4966891;28;20051;-73
2021/07/23 11:45:31;;;;;;;19.92;18.13;;;24.70;99.90;;;;;;4949929;28;20064;-73
2021/07/23 11:48:13;;;;;;;18.67;17.13;;;24.80;99.90;;;;;;4960552;28;20177;-73
2021/07/23 11:50:56;;;;;;;19.13;17.63;;;25.10;99.90;;;;;;4958150;28;20050;-73
2021/07/23 11:53:24;;;;;;;19.00;17.60;;;25.40;99.90;;;;;;4965201;28;20054;-73
2021/07/23 11:55:53;;;;;;;19.32;17.92;;;25.70;99.90;;;;;;4935106;28;1230643;-74
2021/07/23 11:58:28;;;;;;;18.90;17.35;;;25.70;99.90;;;;;;4986032;28;20051;-75
2021/07/23 12:00:55;;;;;;;;;;;26.10;99.90;;;;;;4966002;28;20431;-74
2021/07/23 12:03:27;;;;;;;20.92;19.35;;;26.30;99.90;;;;;;4946419;28;19923;-74
2021/07/23 12:05:54;;;;;;;19.38;17.73;;;26.30;99.90;;;;;;4950938;28;20058;-75
2021/07/23 12:08:23;;;;;;;19.35;18.02;;;25.80;99.90;;;;;;4967218;28;20059;-75
2021/07/23 12:10:55;;;;;;;21.00;19.17;;;25.90;99.90;;;;;;4956258;28;20051;-75
2021/07/23 12:13:23;;;;;;;19.55;17.95;;;26.10;99.90;;;;;;4957829;28;20058;-75
2021/07/23 12:15:55;;;;;;;20.90;19.08;;;26.20;99.90;;;;;;4939079;29;20423;-75
2021/07/23 12:18:24;;;;;;;20.10;18.70;;;26.30;99.90;;;;;;4965513;28;20047;-75
2021/07/23 12:20:52;;;;;;;18.95;17.42;;;26.20;99.90;;;;;;4954601;28;20051;-75
2021/07/23 12:23:27;;;;;;;20.40;18.90;;;26.20;99.90;;;;;;4984274;28;20054;-75
2021/07/23 12:25:54;;;;;;;20.10;18.38;;;26.20;99.90;;;;;;4981984;28;20090;-75
2021/07/23 12:28:22;;;;;;;19.42;17.60;;;26.20;99.90;;;;;;4972111;28;20755;-77
2021/07/23 12:30:50;;;;;;;21.27;19.67;;;25.90;99.90;;;;;;4953777;28;20488;-77
2021/07/23 12:33:28;;;;;;;21.05;19.23;;;26.00;99.90;;;;;;4979311;28;20672;-77
2021/07/23 12:35:57;;;;;;;18.98;17.58;;;25.80;99.90;;;;;;4948788;28;20053;-76
2021/07/23 12:38:31;;;;;;;20.38;18.80;;;25.50;99.90;;;;;;4948720;28;20590;-76
2021/07/23 12:41:26;;;;;;;20.83;18.90;;;25.10;99.90;;;;;;4949936;28;20047;-78
2021/07/23 12:44:13;;;;;;;20.88;19.52;;;25.30;99.90;;;;;;4950313;29;20063;-77
2021/07/23 12:46:41;;;;;;;20.73;19.00;;;25.10;99.90;;;;;;4950185;28;20550;-77